La Barge, WY (83123)

3:59 AM MDT on July 24, 2014 (GMT -0600)
KWYMARBL2 Elev 6896 ft | 42.56 °N, 110.10 °W | Change Station

Current weather conditions updated 4 seconds ago

Partly Cloudy
Partly Cloudy
57.4 °F
Feels Like 57.4 °F
N
4.0
Wind Variable Wind from NNE
Gusts 6.0 mph

Today is forecast to be Cooler than yesterday.

Today
High -- | Low -- °F
--% Chance of Precip.
Yesterday
High -- | Low -- °F
Precip. -- in
6:05 AM 8:48 PM
Waning Crescent, 6% visible
Pressure 29.88 in
Visibility 10.0 miles
Clouds Clear
Dew Point 43 °F
Humidity 59%
Rainfall 0.00 in
Snow Depth Not available.
UV 0 out of 12
Pollen 6.50 out of 12
Air Quality Not available.
Flu Activity Not available.
METAR KBPI 240953Z AUTO 34007KT 10SM CLR 12/08 A3022 RMK AO2 SLP119 T01220083

More Conditions Fewer Conditions

Pressure 29.88 in
Visibility 10.0 miles
Clouds Clear
Dew Point 43 °F
Humidity 59%
Rainfall 0.00 in
Snow Depth Not available.
UV 0 out of 12
Pollen 6.50 out of 12
Air Quality Not available.
Flu Activity Not available.
METAR KBPI 240953Z AUTO 34007KT 10SM CLR 12/08 A3022 RMK AO2 SLP119 T01220083

More Conditions Fewer Conditions

10-Day Weather Forecast

Almanac

Astronomy

Jul. 24, 2014 Rise Set
Actual Time 6:05 AM MDT 8:48 PM MDT
Civil Twilight 5:33 AM MDT 9:20 PM MDT
Nautical Twilight 4:52 AM MDT 10:01 PM MDT
Astronomical Twilight 4:05 AM MDT 10:48 PM MDT
Moon 4:17 AM MDT 7:05 PM MDT
Length of Visible Light 15h 47m
Length of Day
14h 42m
Tomorrow will be 1m 54s shorter.
Waning Crescent, 6% of the Moon is Illuminated
Today
Waning Crescent
Jul 26
New
Aug 3
First Quarter
Aug 10
Full
Aug 17
Last Quarter

Today's Extremes

State Highs State Lows

Community

WunderPhotos

Upload Photos

1,736,963 photos uploaded!

Nearby

Snow Depth

Station Depth Elevation
Hams Fork 0 in 7840 ft
Spring Creek Divide 0 in 9000 ft
Salt River Summit 0 in 7600 ft
Willow Creek 1 in 8450 ft
Blind Bull Summit 1 in 8900 ft

Earthquake Activity

City Distance Mag. Time & Date
Driggs, Idaho 114 miles 3.1 5:31 PM MDT
2014-07-17
Minimum magnitude displayed is 2.5.

Coastal Water Temperatures

Place Temperature
No Stations Reporting

Nearby Weather Stations

Station Location Temp. Dew Point Humidity Wind Precip. Elev Updated Type
Marbleton, WY 57.4 °F 43 °F 59% NNE  at  4.0 mph 0.00 in / hr 6896 ft 3:59 AM MDT Rapid Fire
Little Piney Subdivision, Big Piney, WY 53.9 °F 48 °F 80% WNW  at  1.0 mph 0.00 in / hr 7044 ft 3:59 AM MDT Normal
RAWS B-T PORTABLE #1 POLE CR WY, Geneva, ID 60 °F 36 °F 40% ENE  at  1 mph 0.00 in / hr 8816 ft 2:51 AM MDT MADIS

Show More Stations Show Fewer Stations